Time;durP1;ratioP1;P1;durP2;ratioP2;P2;SDS_P1;SDS_P2;PMS_P1;PMS_P2;Temp;Humidity;BMP_temperature;BMP_pressure;BME280_temperature;BME280_humidity;BME280_pressure;Samples;Min_cycle;Max_cycle;Signal;HPM_P1;HPM_P2
2023/03/09 00:01:39;;;;;;;2.10;2.00;;;20.60;55.80;;;;;;4998309;28;20534;-91
2023/03/09 00:04:06;;;;;;;2.60;2.40;;;20.60;55.80;;;;;;5013753;28;20447;-91
2023/03/09 00:06:33;;;;;;;2.60;2.40;;;20.70;55.80;;;;;;5021532;28;20443;-90
2023/03/09 00:09:00;;;;;;;2.90;2.70;;;20.60;55.80;;;;;;5021344;28;20436;-90
2023/03/09 00:11:27;;;;;;;3.03;2.83;;;20.60;55.80;;;;;;5011365;28;20464;-91
2023/03/09 00:13:53;;;;;;;2.67;2.47;;;20.60;55.80;;;;;;5000535;28;20451;-91
2023/03/09 00:16:24;;;;;;;3.30;2.33;;;20.60;55.80;;;;;;4999447;28;20899;-91
2023/03/09 00:18:52;;;;;;;2.80;2.60;;;20.60;55.70;;;;;;4998603;28;20528;-91
2023/03/09 00:21:34;;;;;;;2.63;2.43;;;20.50;55.60;;;;;;4999288;28;20855;-90
2023/03/09 00:24:04;;;;;;;2.30;2.20;;;20.50;55.60;;;;;;5006330;28;21232;-90
2023/03/09 00:26:31;;;;;;;2.60;2.40;;;20.50;55.60;;;;;;5021387;28;20459;-90
2023/03/09 00:28:58;;;;;;;2.67;2.47;;;20.60;55.70;;;;;;5008057;28;20443;-91
2023/03/09 00:31:26;;;;;;;3.00;2.80;;;20.50;55.60;;;;;;4996955;28;20458;-91
2023/03/09 00:33:53;;;;;;;2.93;2.73;;;20.50;55.60;;;;;;4997117;28;20795;-91
2023/03/09 00:36:22;;;;;;;2.63;2.43;;;20.50;55.60;;;;;;4996561;28;20965;-91
2023/03/09 00:38:51;;;;;;;2.57;2.37;;;20.50;55.60;;;;;;4996424;28;20468;-91
2023/03/09 00:41:19;;;;;;;3.33;3.10;;;20.50;55.50;;;;;;4996222;28;20460;-93
2023/03/09 00:43:46;;;;;;;2.40;2.23;;;20.50;55.60;;;;;;4996425;28;20444;-91
2023/03/09 00:46:13;;;;;;;2.70;2.50;;;20.40;55.60;;;;;;4996019;28;20458;-90
2023/03/09 00:48:43;;;;;;;3.90;2.77;;;20.40;55.50;;;;;;4995971;28;20967;-92
2023/03/09 00:51:11;;;;;;;2.67;2.47;;;20.40;55.50;;;;;;4996084;28;20954;-92
2023/03/09 00:53:38;;;;;;;2.60;2.40;;;20.40;55.50;;;;;;4996881;28;20448;-91
2023/03/09 00:56:08;;;;;;;2.80;2.60;;;20.40;55.50;;;;;;4996047;28;20532;-92
2023/03/09 00:58:37;;;;;;;2.40;2.20;;;20.40;55.40;;;;;;4995987;28;20448;-91
2023/03/09 01:01:08;;;;;;;2.30;2.20;;;20.40;55.40;;;;;;4996173;28;20543;-90
2023/03/09 01:03:35;;;;;;;3.03;2.50;;;20.40;55.50;;;;;;4996612;28;20444;-89
2023/03/09 01:06:18;;;;;;;2.43;2.23;;;20.40;55.40;;;;;;4996023;28;20444;-91
2023/03/09 01:08:52;;;;;;;2.53;2.33;;;20.40;55.40;;;;;;4996188;28;20444;-91
2023/03/09 01:11:19;;;;;;;2.43;2.23;;;20.40;55.40;;;;;;4995531;28;20513;-91
2023/03/09 01:13:46;;;;;;;2.50;2.30;;;20.30;55.30;;;;;;4996156;28;20449;-90
2023/03/09 01:16:13;;;;;;;2.70;2.50;;;20.30;55.40;;;;;;4995553;28;20507;-90
2023/03/09 01:18:41;;;;;;;2.37;2.17;;;20.30;55.40;;;;;;4995870;28;20455;-91
2023/03/09 01:21:10;;;;;;;2.33;2.17;;;20.30;55.40;;;;;;4995707;28;20574;-90
2023/03/09 01:23:37;;;;;;;2.63;2.47;;;20.30;55.30;;;;;;4995981;28;20478;-90
2023/03/09 01:26:04;;;;;;;1.83;1.73;;;20.40;55.40;;;;;;4996336;28;20853;-91
2023/03/09 01:28:32;;;;;;;2.50;2.30;;;20.30;55.40;;;;;;4995220;28;20476;-91
2023/03/09 01:30:59;;;;;;;2.30;2.20;;;20.30;55.40;;;;;;4994976;28;20982;-90
2023/03/09 01:33:26;;;;;;;2.67;2.47;;;20.30;55.40;;;;;;4995304;28;20451;-90
2023/03/09 01:35:53;;;;;;;2.20;2.10;;;20.30;55.40;;;;;;4995125;28;20551;-91
2023/03/09 01:38:21;;;;;;;2.40;2.20;;;20.30;55.40;;;;;;4995076;28;20440;-91
2023/03/09 01:40:49;;;;;;;2.17;2.07;;;20.30;55.30;;;;;;4994650;28;20559;-91
2023/03/09 01:43:34;;;;;;;2.43;2.30;;;20.30;55.30;;;;;;4995953;28;20507;-91
2023/03/09 01:46:31;;;;;;;1.97;1.87;;;20.30;55.30;;;;;;4994875;28;20498;-91
2023/03/09 01:49:07;;;;;;;2.50;2.30;;;20.30;55.30;;;;;;4995113;28;20452;-91
2023/03/09 01:51:40;;;;;;;2.30;2.10;;;20.20;55.30;;;;;;4995619;28;20490;-91
2023/03/09 01:54:12;;;;;;;2.60;2.40;;;20.20;55.30;;;;;;4995943;28;20527;-92
2023/03/09 01:56:42;;;;;;;2.70;2.50;;;20.20;55.30;;;;;;4995616;28;20487;-91
2023/03/09 01:59:11;;;;;;;1.93;1.83;;;20.20;55.30;;;;;;4995305;28;20448;-91
2023/03/09 02:01:40;;;;;;;2.00;1.90;;;20.20;55.30;;;;;;4994906;28;20460;-90
2023/03/09 02:04:11;;;;;;;2.10;2.00;;;20.20;55.80;;;;;;4995199;28;20471;-90
2023/03/09 02:06:39;;;;;;;2.00;1.90;;;20.20;55.20;;;;;;4995286;28;20454;-90
2023/03/09 02:09:17;;;;;;;1.83;1.73;;;20.20;55.30;;;;;;4994727;28;20559;-90
2023/03/09 02:11:45;;;;;;;2.50;2.30;;;20.20;55.20;;;;;;4994781;28;20495;-91
2023/03/09 02:14:12;;;;;;;2.00;1.80;;;20.20;55.30;;;;;;4995309;28;20779;-91
2023/03/09 02:16:39;;;;;;;1.83;1.73;;;20.20;55.20;;;;;;4994947;28;20539;-91
2023/03/09 02:19:08;;;;;;;2.13;2.03;;;20.20;55.20;;;;;;4995282;28;20535;-91
2023/03/09 02:21:42;;;;;;;1.90;1.80;;;20.20;55.20;;;;;;4995117;28;20516;-91
2023/03/09 02:24:18;;;;;;;2.10;2.00;;;20.20;55.80;;;;;;4995399;28;20559;-92
2023/03/09 02:26:50;;;;;;;1.90;1.80;;;20.20;55.20;;;;;;4995909;28;20522;-91
2023/03/09 02:29:18;;;;;;;2.40;2.20;;;20.20;55.20;;;;;;4995384;28;20782;-91
2023/03/09 02:31:45;;;;;;;2.57;2.37;;;20.10;55.10;;;;;;4994598;28;20579;-91
2023/03/09 02:34:13;;;;;;;2.30;2.10;;;20.10;55.10;;;;;;4994545;28;20535;-91
2023/03/09 02:36:40;;;;;;;2.70;2.30;;;20.10;55.20;;;;;;4995094;28;20827;-92
2023/03/09 02:39:13;;;;;;;2.30;2.20;;;20.10;55.10;;;;;;4994329;28;20440;-91
2023/03/09 02:41:40;;;;;;;1.90;1.80;;;20.10;55.10;;;;;;4994502;28;20471;-92
2023/03/09 02:44:07;;;;;;;2.33;2.23;;;20.10;55.10;;;;;;4994556;28;21401;-91
2023/03/09 02:46:35;;;;;;;2.17;2.07;;;20.10;55.10;;;;;;4996086;28;20540;-91
2023/03/09 02:49:02;;;;;;;1.80;1.70;;;20.30;55.30;;;;;;4995393;28;20870;-91
2023/03/09 02:51:29;;;;;;;1.87;1.77;;;20.10;55.10;;;;;;4995171;28;20571;-92
2023/03/09 02:53:56;;;;;;;1.83;1.73;;;20.10;55.10;;;;;;4996104;28;20479;-92
2023/03/09 02:56:22;;;;;;;2.07;1.97;;;20.10;55.10;;;;;;4997353;28;20490;-91
2023/03/09 02:58:49;;;;;;;1.97;1.87;;;20.10;55.00;;;;;;5010699;28;20478;-91
2023/03/09 03:01:16;;;;;;;1.97;1.87;;;20.10;55.10;;;;;;5022725;28;20440;-90
2023/03/09 03:03:45;;;;;;;2.50;2.10;;;20.10;55.10;;;;;;5002343;28;20547;-91
2023/03/09 03:06:12;;;;;;;2.30;2.20;;;20.10;55.00;;;;;;4998353;28;20444;-91
2023/03/09 03:08:38;;;;;;;2.50;2.30;;;20.10;55.10;;;;;;4998500;28;20506;-91
2023/03/09 03:11:05;;;;;;;1.87;1.77;;;20.10;55.10;;;;;;4997354;28;21003;-92
2023/03/09 03:13:35;;;;;;;2.20;2.00;;;20.10;55.10;;;;;;4998032;28;20543;-92
2023/03/09 03:16:03;;;;;;;2.00;1.90;;;20.10;55.00;;;;;;4997578;28;20978;-91
2023/03/09 03:18:31;;;;;;;2.00;1.90;;;20.10;55.00;;;;;;4998029;28;20454;-91
2023/03/09 03:20:59;;;;;;;2.27;2.07;;;20.10;55.10;;;;;;4997984;28;20482;-91
2023/03/09 03:23:26;;;;;;;2.30;2.10;;;20.10;55.00;;;;;;4997654;28;20994;-91
2023/03/09 03:25:53;;;;;;;1.90;1.80;;;20.00;55.00;;;;;;4997890;28;20450;-92
2023/03/09 03:28:20;;;;;;;2.33;2.13;;;20.00;54.90;;;;;;4997995;28;20458;-92
2023/03/09 03:30:50;;;;;;;2.03;1.93;;;20.00;55.50;;;;;;4997538;28;20924;-91
2023/03/09 03:33:17;;;;;;;2.37;2.20;;;20.00;55.00;;;;;;4998316;28;20440;-91
2023/03/09 03:35:44;;;;;;;1.73;1.63;;;20.00;54.90;;;;;;4997567;28;20448;-91
2023/03/09 03:38:12;;;;;;;1.60;1.50;;;20.00;55.00;;;;;;4997532;28;20451;-91
2023/03/09 03:40:39;;;;;;;1.90;1.80;;;20.00;54.90;;;;;;4997249;28;20582;-91
2023/03/09 03:43:06;;;;;;;1.70;1.60;;;20.00;55.00;;;;;;4997550;28;20599;-93
2023/03/09 03:45:34;;;;;;;2.00;1.90;;;20.00;54.90;;;;;;4997514;28;21006;-92
2023/03/09 03:48:01;;;;;;;2.17;1.73;;;20.00;54.90;;;;;;4997325;28;20467;-92
2023/03/09 03:50:28;;;;;;;2.03;1.90;;;20.00;54.90;;;;;;4997106;28;20519;-93
2023/03/09 03:52:55;;;;;;;1.97;1.80;;;20.00;54.90;;;;;;4998016;28;20450;-93
2023/03/09 03:55:23;;;;;;;1.50;1.40;;;20.00;54.90;;;;;;4997468;28;20531;-93
2023/03/09 03:57:50;;;;;;;2.33;2.13;;;20.00;54.90;;;;;;4997324;28;20447;-92
2023/03/09 04:00:19;;;;;;;2.10;1.90;;;20.00;54.90;;;;;;4996760;28;20441;-92
2023/03/09 04:02:46;;;;;;;2.30;2.10;;;20.00;54.90;;;;;;4997939;28;20519;-91
2023/03/09 04:05:13;;;;;;;1.87;1.77;;;20.00;55.00;;;;;;4997772;28;20503;-93
2023/03/09 04:07:40;;;;;;;1.80;1.70;;;20.00;54.90;;;;;;4996779;28;20551;-93
2023/03/09 04:10:09;;;;;;;1.80;1.70;;;20.10;55.00;;;;;;4996591;28;20552;-93
2023/03/09 04:12:37;;;;;;;1.80;1.70;;;20.00;54.80;;;;;;4996313;28;20819;-92
2023/03/09 04:15:05;;;;;;;2.20;2.00;;;20.00;54.90;;;;;;4996521;28;20567;-93
2023/03/09 04:17:32;;;;;;;1.83;1.73;;;20.00;54.90;;;;;;4996769;28;20436;-92
2023/03/09 04:19:59;;;;;;;1.63;1.53;;;19.90;54.80;;;;;;4997320;28;20532;-93
2023/03/09 04:22:26;;;;;;;2.57;1.90;;;19.90;54.80;;;;;;4996840;28;20480;-92
2023/03/09 04:24:52;;;;;;;2.00;1.90;;;19.90;54.80;;;;;;4996919;28;20440;-93
2023/03/09 04:27:19;;;;;;;1.77;1.67;;;19.90;54.80;;;;;;4996921;28;20453;-92
2023/03/09 04:29:47;;;;;;;1.70;1.60;;;19.90;54.80;;;;;;4997325;28;20479;-93
2023/03/09 04:32:14;;;;;;;2.03;1.87;;;19.90;54.80;;;;;;4996936;28;20570;-93
2023/03/09 04:34:41;;;;;;;2.30;1.83;;;19.90;54.80;;;;;;4996663;28;20537;-92
2023/03/09 04:37:08;;;;;;;2.13;2.03;;;19.90;54.80;;;;;;4997953;28;20543;-92
2023/03/09 04:39:35;;;;;;;1.70;1.60;;;19.90;54.80;;;;;;4996513;28;20893;-92
2023/03/09 04:42:02;;;;;;;2.20;2.10;;;19.90;54.80;;;;;;4996898;28;20551;-92
2023/03/09 04:44:29;;;;;;;1.70;1.60;;;19.90;54.80;;;;;;4997528;28;20440;-92
2023/03/09 04:46:58;;;;;;;2.07;1.87;;;20.00;54.80;;;;;;4996904;28;20440;-93
2023/03/09 04:49:25;;;;;;;2.00;1.90;;;19.90;54.70;;;;;;4996732;28;20543;-92
2023/03/09 04:51:52;;;;;;;2.23;2.07;;;19.90;54.70;;;;;;4996432;28;20526;-91
2023/03/09 04:54:19;;;;;;;1.80;1.70;;;19.90;54.70;;;;;;4997567;28;20793;-92
2023/03/09 04:56:46;;;;;;;1.93;1.83;;;19.90;54.70;;;;;;4996735;28;20542;-93
2023/03/09 04:59:13;;;;;;;2.10;1.90;;;19.90;54.80;;;;;;4996882;28;20457;-92
2023/03/09 05:01:39;;;;;;;2.43;2.23;;;19.90;54.70;;;;;;4999051;28;20527;-92
2023/03/09 05:04:09;;;;;;;2.03;1.93;;;19.90;54.70;;;;;;5009910;28;20455;-91
2023/03/09 05:06:36;;;;;;;2.20;2.10;;;19.90;54.70;;;;;;5020500;28;20447;-91
2023/03/09 05:09:04;;;;;;;1.53;1.43;;;19.90;54.70;;;;;;5020622;28;20428;-92
2023/03/09 05:11:31;;;;;;;2.57;1.90;;;19.90;54.70;;;;;;5014207;28;20515;-93
2023/03/09 05:13:58;;;;;;;1.73;1.63;;;19.90;54.70;;;;;;4998945;28;20803;-92
2023/03/09 05:16:25;;;;;;;1.80;1.70;;;19.90;54.70;;;;;;4997415;28;20472;-92
2023/03/09 05:18:53;;;;;;;1.93;1.83;;;19.90;55.30;;;;;;4997669;28;20483;-93
2023/03/09 05:21:21;;;;;;;1.67;1.57;;;19.90;54.70;;;;;;4996970;28;20542;-92
2023/03/09 05:23:48;;;;;;;2.33;2.13;;;19.90;54.70;;;;;;4998076;28;20871;-92
2023/03/09 05:26:15;;;;;;;2.00;1.80;;;19.90;54.70;;;;;;4997290;28;20450;-93
2023/03/09 05:28:42;;;;;;;1.90;1.80;;;19.80;54.60;;;;;;4999588;28;20508;-92
2023/03/09 05:31:10;;;;;;;2.10;1.90;;;19.80;54.60;;;;;;5018746;28;20458;-92
2023/03/09 05:33:37;;;;;;;2.10;1.70;;;19.80;54.60;;;;;;5014638;28;20462;-93
2023/03/09 05:36:14;;;;;;;2.40;2.20;;;19.80;54.60;;;;;;4995854;28;20448;-93
2023/03/09 05:38:42;;;;;;;1.90;1.80;;;19.80;54.60;;;;;;4995749;28;20454;-92
2023/03/09 05:41:09;;;;;;;2.17;2.07;;;19.80;54.60;;;;;;4995351;28;20469;-93
2023/03/09 05:43:40;;;;;;;1.70;1.60;;;19.80;54.60;;;;;;4995525;28;20943;-92
2023/03/09 05:46:07;;;;;;;2.33;2.17;;;19.80;54.60;;;;;;4995398;28;20436;-92
2023/03/09 05:48:34;;;;;;;1.57;1.47;;;19.80;54.50;;;;;;4995019;28;20535;-92
2023/03/09 05:51:01;;;;;;;2.03;1.93;;;19.80;54.90;;;;;;4995173;28;20582;-92
2023/03/09 05:53:28;;;;;;;2.57;2.37;;;19.80;54.60;;;;;;4994872;28;20443;-92
2023/03/09 05:55:57;;;;;;;2.30;2.10;;;19.80;55.20;;;;;;4995736;28;20454;-92
2023/03/09 05:58:24;;;;;;;1.83;1.73;;;19.80;54.60;;;;;;4995560;28;20539;-92
2023/03/09 06:00:52;;;;;;;1.80;1.70;;;19.80;54.60;;;;;;4996030;28;20488;-92
2023/03/09 06:03:19;;;;;;;2.03;1.83;;;19.80;54.60;;;;;;4997685;28;20444;-91
2023/03/09 06:05:46;;;;;;;2.23;2.03;;;19.80;54.50;;;;;;4996711;28;20531;-91
2023/03/09 06:08:14;;;;;;;1.93;1.83;;;19.80;54.50;;;;;;4996643;28;20456;-91
2023/03/09 06:10:41;;;;;;;2.50;2.40;;;19.80;54.50;;;;;;4994795;28;20468;-91
2023/03/09 06:13:09;;;;;;;2.23;2.03;;;19.80;54.50;;;;;;4995531;28;21050;-91
2023/03/09 06:15:38;;;;;;;1.90;1.80;;;19.80;54.50;;;;;;4994447;28;20504;-91
2023/03/09 06:18:05;;;;;;;2.20;2.00;;;19.80;54.50;;;;;;4994843;28;20436;-92
2023/03/09 06:20:32;;;;;;;1.93;1.77;;;19.80;54.60;;;;;;4994412;28;20527;-92
2023/03/09 06:22:59;;;;;;;2.17;1.97;;;19.80;54.50;;;;;;4994589;28;20454;-91
2023/03/09 06:25:26;;;;;;;2.50;2.30;;;19.80;54.50;;;;;;4994656;28;20960;-91
2023/03/09 06:27:53;;;;;;;2.40;1.90;;;19.80;54.50;;;;;;4994237;28;20535;-91
2023/03/09 06:30:21;;;;;;;1.60;1.50;;;19.70;54.50;;;;;;4994259;28;20716;-91
2023/03/09 06:32:49;;;;;;;2.00;1.90;;;19.70;54.50;;;;;;4994548;28;20491;-91
2023/03/09 06:35:16;;;;;;;1.83;1.73;;;19.70;54.50;;;;;;4993996;28;20535;-91
2023/03/09 06:37:43;;;;;;;2.57;1.93;;;19.70;54.50;;;;;;4995271;28;20542;-91
2023/03/09 06:40:12;;;;;;;1.90;1.80;;;19.70;54.50;;;;;;4993928;28;20455;-91
2023/03/09 06:42:39;;;;;;;1.67;1.57;;;19.80;54.60;;;;;;4994688;28;21029;-92
2023/03/09 06:45:07;;;;;;;1.80;1.70;;;19.70;55.10;;;;;;4994547;28;20943;-91
2023/03/09 06:47:35;;;;;;;2.03;1.93;;;19.70;54.50;;;;;;4994526;28;20539;-92
2023/03/09 06:50:02;;;;;;;2.10;2.00;;;19.70;54.50;;;;;;4994224;28;20442;-91
2023/03/09 06:52:29;;;;;;;2.27;2.17;;;19.70;54.50;;;;;;4994727;28;20586;-91
2023/03/09 06:54:56;;;;;;;1.93;1.70;;;19.70;54.50;;;;;;4994148;28;20487;-91
2023/03/09 06:57:22;;;;;;;2.07;1.87;;;19.70;54.50;;;;;;4994936;28;20468;-91
2023/03/09 06:59:49;;;;;;;2.47;2.27;;;19.70;54.40;;;;;;4994845;28;20440;-91
2023/03/09 07:02:16;;;;;;;2.03;1.90;;;19.70;54.60;;;;;;4993923;28;20498;-91
2023/03/09 07:04:45;;;;;;;2.17;2.07;;;19.70;54.40;;;;;;4994542;28;20472;-91
2023/03/09 07:07:13;;;;;;;2.03;1.93;;;19.70;54.50;;;;;;4995229;28;20782;-91
2023/03/09 07:09:41;;;;;;;2.17;2.07;;;19.70;54.40;;;;;;4996086;28;20456;-92
2023/03/09 07:12:08;;;;;;;1.77;1.67;;;19.70;54.50;;;;;;4995697;28;20586;-92
2023/03/09 07:14:35;;;;;;;1.93;1.83;;;19.70;54.40;;;;;;4994465;28;20516;-92
2023/03/09 07:17:02;;;;;;;2.10;1.90;;;19.70;54.40;;;;;;4994797;28;20523;-91
2023/03/09 07:19:29;;;;;;;2.30;2.13;;;19.70;54.50;;;;;;4995163;28;20437;-91
2023/03/09 07:21:57;;;;;;;2.10;1.90;;;19.70;54.50;;;;;;4994527;28;20483;-91
2023/03/09 07:24:24;;;;;;;2.37;1.97;;;19.70;54.40;;;;;;4996268;28;20523;-92
2023/03/09 07:26:51;;;;;;;2.47;2.27;;;19.70;54.50;;;;;;4994382;28;20447;-92
2023/03/09 07:29:19;;;;;;;1.80;1.70;;;19.70;54.40;;;;;;4994414;28;20494;-91
2023/03/09 07:31:47;;;;;;;2.50;2.30;;;19.70;54.40;;;;;;4994605;28;20494;-91
2023/03/09 07:34:14;;;;;;;2.80;2.07;;;19.70;54.40;;;;;;4994931;28;20459;-91
2023/03/09 07:36:40;;;;;;;1.90;1.80;;;19.70;55.00;;;;;;4994866;28;20839;-91
2023/03/09 07:39:09;;;;;;;2.43;2.23;;;19.70;54.40;;;;;;4994682;28;20942;-91
2023/03/09 07:41:35;;;;;;;2.27;2.17;;;19.70;54.40;;;;;;4994098;28;20480;-91
2023/03/09 07:44:02;;;;;;;1.97;1.87;;;19.70;54.40;;;;;;4994421;28;20997;-91
2023/03/09 07:46:29;;;;;;;2.00;1.90;;;19.70;54.50;;;;;;4995676;28;21027;-91
2023/03/09 07:48:56;;;;;;;1.90;1.80;;;19.70;54.40;;;;;;4997967;28;20461;-91
2023/03/09 07:51:23;;;;;;;1.80;1.70;;;19.70;54.50;;;;;;4997847;28;20880;-91
2023/03/09 07:53:50;;;;;;;2.17;1.97;;;19.70;54.40;;;;;;4998075;28;20531;-91
2023/03/09 07:56:18;;;;;;;2.20;2.10;;;19.70;54.40;;;;;;4998300;28;20468;-91
2023/03/09 07:58:46;;;;;;;2.07;1.87;;;19.70;54.40;;;;;;4998366;28;21039;-91
2023/03/09 08:01:17;;;;;;;2.20;2.00;;;19.60;54.40;;;;;;4999360;28;20479;-91
2023/03/09 08:03:44;;;;;;;2.40;2.20;;;19.70;54.40;;;;;;5008933;28;20432;-90
2023/03/09 08:06:12;;;;;;;2.30;2.10;;;19.70;54.40;;;;;;5002132;28;20445;-91
2023/03/09 08:08:39;;;;;;;1.63;1.53;;;19.70;54.30;;;;;;4981699;28;20448;-90
2023/03/09 08:11:07;;;;;;;1.87;1.77;;;19.70;54.40;;;;;;4977811;28;20469;-90
2023/03/09 08:13:36;;;;;;;1.97;1.87;;;19.70;54.40;;;;;;4977450;28;20562;-92
2023/03/09 08:16:06;;;;;;;2.60;2.40;;;19.70;54.40;;;;;;4977373;28;20479;-91
2023/03/09 08:18:34;;;;;;;2.60;2.10;;;19.70;54.50;;;;;;4977756;28;20548;-92
2023/03/09 08:21:05;;;;;;;15.80;2.30;;;19.70;54.40;;;;;;4977389;28;20555;-91
2023/03/09 08:23:33;;;;;;;2.00;1.80;;;19.70;54.40;;;;;;4977161;28;20462;-91
2023/03/09 08:26:00;;;;;;;2.97;2.30;;;19.70;54.40;;;;;;4977052;28;20485;-91
2023/03/09 08:28:27;;;;;;;2.80;2.30;;;19.70;54.50;;;;;;4976936;28;20540;-92
2023/03/09 08:30:56;;;;;;;5.13;2.30;;;19.70;54.50;;;;;;4977140;28;20453;-91
2023/03/09 08:33:23;;;;;;;2.20;2.00;;;19.70;54.50;;;;;;4976908;28;20490;-91
2023/03/09 08:35:49;;;;;;;2.93;2.63;;;19.70;54.60;;;;;;4977137;28;20533;-91
2023/03/09 08:38:16;;;;;;;2.70;2.47;;;19.70;54.40;;;;;;4977148;28;20445;-91
2023/03/09 08:40:43;;;;;;;3.00;2.27;;;19.70;54.50;;;;;;4976888;28;20465;-91
2023/03/09 08:43:11;;;;;;;2.43;2.23;;;19.70;54.60;;;;;;4977046;28;20449;-91
2023/03/09 08:45:39;;;;;;;2.60;2.40;;;19.70;54.80;;;;;;4977011;28;20944;-91
2023/03/09 08:48:07;;;;;;;2.57;2.37;;;19.70;54.60;;;;;;4976645;28;20886;-90
2023/03/09 08:50:34;;;;;;;3.40;2.40;;;19.70;54.70;;;;;;4976917;28;20561;-92
2023/03/09 08:53:01;;;;;;;2.83;2.50;;;19.70;54.60;;;;;;4976738;28;20510;-92
2023/03/09 08:55:28;;;;;;;4.90;2.50;;;19.70;54.70;;;;;;4976908;28;20528;-92
2023/03/09 08:57:56;;;;;;;3.53;2.60;;;19.70;54.70;;;;;;4977154;28;20471;-92
2023/03/09 09:00:23;;;;;;;2.60;2.40;;;19.70;54.90;;;;;;4976774;28;20451;-91
2023/03/09 09:02:50;;;;;;;2.30;2.10;;;19.70;54.90;;;;;;4977256;28;20525;-91
2023/03/09 09:05:19;;;;;;;2.93;2.60;;;19.70;54.80;;;;;;4996168;28;20458;-91
2023/03/09 09:07:45;;;;;;;2.47;2.23;;;19.70;54.80;;;;;;4996317;28;20523;-91
2023/03/09 09:10:13;;;;;;;2.57;2.37;;;19.70;54.90;;;;;;4995606;28;20566;-91
2023/03/09 09:12:39;;;;;;;3.63;2.40;;;19.70;55.20;;;;;;4995900;28;20578;-95
2023/03/09 09:15:10;;;;;;;2.43;2.23;;;19.90;55.30;;;;;;4995702;28;20476;-96
2023/03/09 09:17:37;;;;;;;5.20;2.70;;;19.70;55.00;;;;;;4997743;28;20448;-87
2023/03/09 09:20:05;;;;;;;2.37;2.17;;;19.70;54.90;;;;;;4996760;28;20443;-89
2023/03/09 09:22:36;;;;;;;3.13;2.23;;;19.70;54.80;;;;;;4998397;28;20443;-88
2023/03/09 09:25:08;;;;;;;2.43;2.27;;;19.70;54.80;;;;;;4999958;28;20475;-88
2023/03/09 09:28:08;;;;;;;3.33;2.80;;;19.70;55.00;;;;;;4999490;28;20444;-87
2023/03/09 09:30:36;;;;;;;4.63;3.20;;;19.70;55.20;;;;;;4997761;28;20440;-87
2023/03/09 09:33:04;;;;;;;5.30;2.43;;;19.70;54.90;;;;;;4998652;28;21078;-88
2023/03/09 09:35:32;;;;;;;3.57;2.67;;;19.70;54.90;;;;;;4997787;28;20444;-88
2023/03/09 09:38:00;;;;;;;3.20;2.13;;;19.70;54.90;;;;;;4997556;28;20447;-88
2023/03/09 09:40:29;;;;;;;3.60;3.30;;;19.70;54.90;;;;;;4996772;28;20563;-88
2023/03/09 09:42:57;;;;;;;2.50;2.30;;;19.70;54.70;;;;;;4996843;28;20480;-88
2023/03/09 09:45:33;;;;;;;3.50;2.80;;;19.80;55.00;;;;;;4996516;28;20443;-87
2023/03/09 09:48:04;;;;;;;14.67;2.97;;;19.80;54.90;;;;;;4998406;28;20866;-87
2023/03/09 09:50:46;;;;;;;4.90;3.00;;;19.70;54.50;;;;;;4988550;28;20448;-85
2023/03/09 09:53:26;;;;;;;4.60;2.60;;;19.70;54.40;;;;;;4993412;28;20494;-89
2023/03/09 09:55:54;;;;;;;3.13;2.83;;;19.70;54.40;;;;;;4995318;28;20447;-88
2023/03/09 09:58:31;;;;;;;2.73;2.53;;;19.70;54.80;;;;;;4995551;28;20440;-89
2023/03/09 10:01:01;;;;;;;4.17;2.77;;;19.70;54.80;;;;;;4995386;28;20457;-89
2023/03/09 10:03:32;;;;;;;3.00;2.60;;;19.70;54.80;;;;;;4994991;28;20444;-89
2023/03/09 10:06:06;;;;;;;4.03;2.70;;;19.70;54.80;;;;;;4995727;28;20512;-89
2023/03/09 10:08:41;;;;;;;4.00;2.70;;;19.70;54.80;;;;;;4995928;28;20527;-89
2023/03/09 10:11:14;;;;;;;3.70;2.73;;;19.70;54.80;;;;;;5019195;28;20451;-89
2023/03/09 10:13:45;;;;;;;2.97;2.70;;;19.70;54.80;;;;;;5019438;28;20526;-91
2023/03/09 10:16:15;;;;;;;6.07;2.70;;;19.70;54.70;;;;;;5019074;28;20462;-91
2023/03/09 10:18:48;;;;;;;3.60;2.40;;;19.80;54.80;;;;;;4998577;28;20447;-89
2023/03/09 10:21:21;;;;;;;3.13;2.87;;;19.70;54.80;;;;;;4997514;28;20768;-89
2023/03/09 10:23:51;;;;;;;4.10;2.70;;;19.70;54.80;;;;;;4996190;28;20440;-89
2023/03/09 10:26:36;;;;;;;2.80;2.60;;;19.70;54.80;;;;;;4995385;28;20471;-89
2023/03/09 10:29:12;;;;;;;3.10;2.33;;;19.70;54.70;;;;;;4995928;28;20515;-93
2023/03/09 10:31:43;;;;;;;4.00;2.70;;;19.70;54.80;;;;;;4996531;28;20435;-89
2023/03/09 10:34:17;;;;;;;2.80;2.57;;;19.70;54.70;;;;;;4999282;28;20571;-89
2023/03/09 10:36:56;;;;;;;3.60;3.00;;;19.70;54.70;;;;;;5019024;28;20455;-89
2023/03/09 10:39:25;;;;;;;3.67;3.37;;;19.70;54.70;;;;;;5008243;28;20468;-89
2023/03/09 10:41:56;;;;;;;4.43;2.83;;;19.70;54.80;;;;;;4994445;28;20858;-88
2023/03/09 10:44:24;;;;;;;3.57;2.83;;;19.70;54.80;;;;;;4994322;28;20531;-89
2023/03/09 10:46:56;;;;;;;3.40;3.10;;;19.70;54.80;;;;;;4994239;28;20534;-88
2023/03/09 10:49:23;;;;;;;4.13;3.00;;;19.70;54.70;;;;;;4994122;28;20498;-89
2023/03/09 10:51:58;;;;;;;3.20;3.00;;;19.70;54.70;;;;;;4994670;28;20456;-88
2023/03/09 10:54:31;;;;;;;6.53;3.53;;;19.70;54.70;;;;;;4995064;28;20490;-88
2023/03/09 10:56:59;;;;;;;3.07;2.67;;;19.80;54.80;;;;;;4994181;28;20932;-88
2023/03/09 10:59:27;;;;;;;3.00;2.63;;;19.80;54.80;;;;;;4994209;28;20463;-89
2023/03/09 11:01:56;;;;;;;3.47;3.17;;;19.90;54.90;;;;;;4994258;28;20444;-89
2023/03/09 11:04:36;;;;;;;3.33;3.03;;;19.70;54.70;;;;;;4993966;28;20451;-89
2023/03/09 11:07:04;;;;;;;3.50;3.20;;;19.70;54.70;;;;;;4994518;28;20440;-89
2023/03/09 11:09:35;;;;;;;7.40;3.50;;;19.70;54.70;;;;;;4993918;28;20543;-90
2023/03/09 11:12:17;;;;;;;3.23;2.90;;;19.80;54.80;;;;;;4994291;28;20471;-89
2023/03/09 11:14:48;;;;;;;3.40;3.20;;;19.70;54.80;;;;;;4993704;28;20507;-89
2023/03/09 11:17:39;;;;;;;7.50;3.03;;;19.70;54.70;;;;;;4993740;28;20542;-89
2023/03/09 11:20:28;;;;;;;3.60;2.97;;;19.70;54.70;;;;;;4995118;28;20454;-89
2023/03/09 11:23:00;;;;;;;3.17;2.87;;;19.70;54.70;;;;;;4998044;28;20491;-89
2023/03/09 11:26:04;;;;;;;3.50;3.10;;;19.70;54.70;;;;;;4998032;28;20440;-89
2023/03/09 11:28:42;;;;;;;3.70;3.40;;;19.70;54.70;;;;;;4997667;28;20494;-89
2023/03/09 11:31:14;;;;;;;3.00;2.80;;;19.70;54.70;;;;;;4997674;28;20844;-89
2023/03/09 11:33:42;;;;;;;2.80;2.60;;;19.60;54.60;;;;;;4997439;28;20502;-89
2023/03/09 11:36:14;;;;;;;3.27;2.97;;;19.60;54.60;;;;;;4997550;28;20949;-90
2023/03/09 11:38:42;;;;;;;3.50;3.20;;;19.80;54.80;;;;;;4997394;28;20515;-90
2023/03/09 11:41:19;;;;;;;5.50;3.67;;;19.60;54.60;;;;;;4997293;28;20566;-90
2023/03/09 11:43:50;;;;;;;3.60;3.30;;;19.70;54.70;;;;;;4997847;28;20440;-93
2023/03/09 11:46:19;;;;;;;4.77;3.77;;;19.70;54.70;;;;;;4998019;28;20534;-89
2023/03/09 11:48:49;;;;;;;3.37;3.10;;;19.70;54.70;;;;;;4997262;28;20461;-90
2023/03/09 11:51:21;;;;;;;3.67;2.77;;;19.60;54.70;;;;;;4997488;28;20452;-90
2023/03/09 11:53:55;;;;;;;2.97;2.70;;;19.70;54.70;;;;;;4997178;28;20587;-91
2023/03/09 11:56:27;;;;;;;2.73;2.53;;;19.60;54.60;;;;;;4997528;28;20531;-90
2023/03/09 11:58:59;;;;;;;3.57;3.27;;;19.60;54.70;;;;;;4997598;28;20934;-89
2023/03/09 12:01:30;;;;;;;4.23;3.93;;;19.70;54.70;;;;;;4997457;28;20515;-89
2023/03/09 12:04:01;;;;;;;3.83;3.53;;;19.60;54.60;;;;;;4997766;28;20444;-96
2023/03/09 12:06:38;;;;;;;3.00;2.80;;;19.70;54.60;;;;;;4997506;28;20795;-90
2023/03/09 12:09:09;;;;;;;2.97;2.77;;;19.70;54.70;;;;;;4996964;28;20527;-90
2023/03/09 12:11:42;;;;;;;4.03;3.53;;;19.60;54.60;;;;;;4997265;28;20475;-90
2023/03/09 12:14:20;;;;;;;3.67;3.37;;;19.60;54.60;;;;;;4997118;28;20566;-87
2023/03/09 12:16:51;;;;;;;4.13;3.43;;;19.70;54.60;;;;;;4997209;28;20460;-88
2023/03/09 12:19:20;;;;;;;3.70;3.40;;;19.60;54.70;;;;;;4997065;28;20928;-88
2023/03/09 12:21:51;;;;;;;4.17;3.43;;;19.60;54.50;;;;;;4997057;28;20458;-88
2023/03/09 12:24:27;;;;;;;4.13;3.83;;;19.60;54.60;;;;;;4996922;28;20471;-88
2023/03/09 12:27:01;;;;;;;3.33;3.13;;;19.70;54.60;;;;;;4997215;28;20447;-87
2023/03/09 12:29:33;;;;;;;4.70;3.90;;;19.70;54.70;;;;;;4996959;28;20530;-90
2023/03/09 12:32:33;;;;;;;4.00;3.70;;;19.70;54.60;;;;;;4996489;28;20447;-89
2023/03/09 12:35:02;;;;;;;3.50;3.20;;;19.70;54.50;;;;;;4997596;28;20519;-87
2023/03/09 12:37:56;;;;;;;3.90;3.50;;;19.60;54.60;;;;;;4997176;28;20518;-95
2023/03/09 12:40:33;;;;;;;4.40;3.83;;;19.70;54.60;;;;;;4997578;28;20551;-95
2023/03/09 12:43:44;;;;;;;3.93;3.63;;;19.60;54.60;;;;;;4997693;28;20447;-96
2023/03/09 12:46:55;;;;;;;3.40;3.10;;;19.60;54.60;;;;;;4996989;28;20452;-90
2023/03/09 12:49:26;;;;;;;3.53;3.23;;;19.60;54.60;;;;;;4970412;28;20444;-90
2023/03/09 12:52:22;;;;;;;3.43;3.10;;;19.60;54.60;;;;;;4996496;28;20447;-90
2023/03/09 12:54:56;;;;;;;4.20;3.80;;;19.60;54.60;;;;;;4996990;28;20486;-90
2023/03/09 12:57:23;;;;;;;4.30;3.90;;;19.60;54.60;;;;;;4997068;28;20442;-90
2023/03/09 12:59:52;;;;;;;3.83;3.53;;;19.60;54.70;;;;;;4996886;28;20531;-90
2023/03/09 13:02:32;;;;;;;3.90;3.60;;;19.60;54.60;;;;;;4997326;28;20441;-89